Time,TemperatureF,DewpointF,PressureIn,WindDirection,WindDirectionDegrees,WindSpeedMPH,WindSpeedGustMPH,Humidity,HourlyPrecipIn,Conditions,Clouds,dailyrainin,SoftwareType,DateUTC
2013-05-23 00:02:00,66.0,62.0,29.84,South,191,0.0,0.0,87,0.00,,,0.02,,2013-05-23 05:02:00,
2013-05-23 00:11:00,66.0,62.0,29.84,South,191,0.0,0.0,87,0.00,,,0.02,,2013-05-23 05:11:00,
2013-05-23 00:43:00,66.0,60.0,29.86,WNW,303,0.0,4.0,80,0.00,,,0.02,,2013-05-23 05:43:00,
2013-05-23 00:52:00,66.0,60.0,29.86,WNW,303,0.0,4.0,80,0.00,,,0.02,,2013-05-23 05:52:00,
2013-05-23 01:02:00,66.0,60.0,29.87,NW,313,0.0,5.0,80,0.00,,,0.02,,2013-05-23 06:02:00,
2013-05-23 01:12:00,66.0,60.0,29.87,NW,313,0.0,5.0,80,0.00,,,0.02,,2013-05-23 06:12:00,
2013-05-23 01:21:00,65.0,59.0,29.87,NNW,345,0.0,3.0,81,0.00,,,0.02,,2013-05-23 06:21:00,
2013-05-23 01:32:00,65.0,59.0,29.87,WNW,283,3.0,7.0,81,0.00,,,0.02,,2013-05-23 06:32:00,
2013-05-23 01:42:00,65.0,59.0,29.87,WNW,283,3.0,7.0,81,0.00,,,0.02,,2013-05-23 06:42:00,
2013-05-23 01:52:00,64.0,58.0,29.88,NNW,336,0.0,6.0,80,0.00,,,0.02,,2013-05-23 06:52:00,
2013-05-23 02:02:00,64.0,58.0,29.87,NW,315,0.0,3.0,80,0.00,,,0.02,,2013-05-23 07:02:00,
2013-05-23 02:11:00,64.0,58.0,29.87,NW,315,0.0,3.0,80,0.00,,,0.02,,2013-05-23 07:11:00,
2013-05-23 02:21:00,63.0,57.0,29.88,NW,304,0.0,1.0,81,0.00,,,0.02,,2013-05-23 07:21:00,
2013-05-23 02:32:00,62.0,57.0,29.88,NW,304,0.0,0.0,83,0.00,,,0.02,,2013-05-23 07:32:00,
2013-05-23 02:42:00,62.0,57.0,29.88,NW,304,0.0,0.0,83,0.00,,,0.02,,2013-05-23 07:42:00,
2013-05-23 02:59:00,61.0,56.0,29.88,NW,304,0.0,0.0,83,0.00,,,0.02,,2013-05-23 07:59:00,
2013-05-23 03:11:00,61.0,56.0,29.88,NW,304,0.0,0.0,84,0.00,,,0.02,,2013-05-23 08:11:00,
2013-05-23 03:22:00,60.0,56.0,29.88,NW,304,0.0,0.0,86,0.00,,,0.02,,2013-05-23 08:22:00,
2013-05-23 03:31:00,60.0,56.0,29.89,ESE,107,0.0,0.0,87,0.00,,,0.02,,2013-05-23 08:31:00,
2013-05-23 03:42:00,60.0,56.0,29.89,ESE,107,0.0,0.0,87,0.00,,,0.02,,2013-05-23 08:42:00,
2013-05-23 03:51:00,60.0,56.0,29.89,ESE,109,0.0,0.0,87,0.00,,,0.02,,2013-05-23 08:51:00,
2013-05-23 04:01:00,59.0,55.0,29.90,ESE,109,0.0,0.0,87,0.00,,,0.02,,2013-05-23 09:01:00,
2013-05-23 04:11:00,59.0,55.0,29.90,ESE,109,0.0,0.0,87,0.00,,,0.02,,2013-05-23 09:11:00,
2013-05-23 04:21:00,59.0,56.0,29.90,ESE,109,0.0,0.0,89,0.00,,,0.02,,2013-05-23 09:21:00,
2013-05-23 04:33:00,59.0,56.0,29.90,ESE,109,0.0,0.0,90,0.00,,,0.01,,2013-05-23 09:33:00,
2013-05-23 04:42:00,59.0,56.0,29.90,ESE,109,0.0,0.0,90,0.00,,,0.01,,2013-05-23 09:42:00,
2013-05-23 04:53:00,58.0,55.0,29.90,ESE,109,0.0,0.0,90,0.00,,,0.01,,2013-05-23 09:53:00,
2013-05-23 05:02:00,58.0,55.0,29.90,ESE,109,0.0,0.0,91,0.00,,,0.01,,2013-05-23 10:02:00,
2013-05-23 05:12:00,58.0,55.0,29.90,ESE,109,0.0,0.0,91,0.00,,,0.01,,2013-05-23 10:12:00,
2013-05-23 05:22:00,58.0,56.0,29.91,SSE,159,0.0,0.0,92,0.00,,,0.01,,2013-05-23 10:22:00,
2013-05-23 05:32:00,58.0,56.0,29.91,SSE,167,0.0,0.0,92,0.00,,,0.00,,2013-05-23 10:32:00,
2013-05-23 05:42:00,58.0,56.0,29.91,SSE,167,0.0,0.0,92,0.00,,,0.00,,2013-05-23 10:42:00,
2013-05-23 05:52:00,57.0,55.0,29.92,SSE,168,0.0,0.0,93,0.00,,,0.00,,2013-05-23 10:52:00,
2013-05-23 06:02:00,57.0,55.0,29.92,South,190,0.0,0.0,93,0.00,,,0.00,,2013-05-23 11:02:00,
2013-05-23 06:11:00,57.0,55.0,29.92,South,190,0.0,0.0,93,0.00,,,0.00,,2013-05-23 11:11:00,
2013-05-23 06:22:00,57.0,55.0,29.92,South,190,0.0,0.0,93,0.00,,,0.00,,2013-05-23 11:22:00,
2013-05-23 06:32:00,57.0,55.0,29.92,South,190,0.0,0.0,93,0.00,,,0.00,,2013-05-23 11:32:00,
2013-05-23 06:42:00,57.0,55.0,29.92,South,190,0.0,0.0,93,0.00,,,0.00,,2013-05-23 11:42:00,
2013-05-23 06:52:00,58.0,56.0,29.93,South,190,0.0,0.0,93,0.00,,,0.00,,2013-05-23 11:52:00,
2013-05-23 07:01:00,59.0,57.0,29.93,SSW,197,0.0,0.0,93,0.00,,,0.00,,2013-05-23 12:01:00,
2013-05-23 07:11:00,59.0,57.0,29.93,SSW,197,0.0,0.0,93,0.00,,,0.00,,2013-05-23 12:11:00,
2013-05-23 07:21:00,59.0,56.0,29.94,SSW,193,0.0,0.0,91,0.00,,,0.00,,2013-05-23 12:21:00,
2013-05-23 07:32:00,60.0,57.0,29.94,SSW,207,0.0,0.0,90,0.00,,,0.00,,2013-05-23 12:32:00,
2013-05-23 07:42:00,60.0,57.0,29.94,SSW,207,0.0,0.0,90,0.00,,,0.00,,2013-05-23 12:42:00,
2013-05-23 07:52:00,61.0,57.0,29.94,SW,224,0.0,2.0,86,0.00,,,0.00,,2013-05-23 12:52:00,
2013-05-23 08:01:00,62.0,56.0,29.94,WSW,246,0.0,4.0,82,0.00,,,0.00,,2013-05-23 13:01:00,
2013-05-23 08:11:00,62.0,56.0,29.94,WSW,246,0.0,4.0,82,0.00,,,0.00,,2013-05-23 13:11:00,
2013-05-23 08:22:00,64.0,58.0,29.94,NW,313,0.0,5.0,80,0.00,,,0.00,,2013-05-23 13:22:00,
2013-05-23 08:32:00,64.0,57.0,29.95,NW,307,1.0,6.0,77,0.00,,,0.00,,2013-05-23 13:32:00,
2013-05-23 08:41:00,64.0,57.0,29.95,NW,307,1.0,6.0,77,0.00,,,0.00,,2013-05-23 13:41:00,
2013-05-23 08:52:00,65.0,57.0,29.95,West,277,2.0,7.0,76,0.00,,,0.00,,2013-05-23 13:52:00,
2013-05-23 09:02:00,66.0,57.0,29.95,WNW,288,0.0,5.0,74,0.00,,,0.00,,2013-05-23 14:02:00,
2013-05-23 09:11:00,66.0,57.0,29.95,WNW,288,0.0,5.0,74,0.00,,,0.00,,2013-05-23 14:11:00,
2013-05-23 09:21:00,65.0,56.0,29.95,WNW,298,1.0,6.0,72,0.00,,,0.00,,2013-05-23 14:21:00,
2013-05-23 09:32:00,66.0,56.0,29.95,NW,326,2.0,10.0,69,0.00,,,0.00,,2013-05-23 14:32:00,
2013-05-23 09:42:00,66.0,56.0,29.95,NW,326,2.0,10.0,69,0.00,,,0.00,,2013-05-23 14:42:00,
2013-05-23 09:52:00,66.0,54.0,29.95,WNW,285,0.0,9.0,66,0.00,,,0.00,,2013-05-23 14:52:00,
2013-05-23 10:01:00,65.0,54.0,29.96,NW,305,2.0,10.0,68,0.00,,,0.00,,2013-05-23 15:01:00,
2013-05-23 10:11:00,65.0,54.0,29.96,NW,305,2.0,10.0,68,0.00,,,0.00,,2013-05-23 15:11:00,
2013-05-23 10:21:00,64.0,55.0,29.96,North,355,0.0,11.0,72,0.00,,,0.00,,2013-05-23 15:21:00,
2013-05-23 10:32:00,64.0,55.0,29.97,WNW,290,4.0,11.0,73,0.00,,,0.00,,2013-05-23 15:32:00,
2013-05-23 10:42:00,64.0,55.0,29.97,WNW,290,4.0,11.0,73,0.00,,,0.00,,2013-05-23 15:42:00,
2013-05-23 10:53:00,64.0,54.0,29.97,WNW,302,3.0,11.0,71,0.00,,,0.00,,2013-05-23 15:53:00,
2013-05-23 11:03:00,64.0,55.0,29.97,NNW,338,3.0,10.0,72,0.00,,,0.00,,2013-05-23 16:03:00,
2013-05-23 11:12:00,64.0,55.0,29.97,NNW,338,3.0,10.0,72,0.00,,,0.00,,2013-05-23 16:12:00,
2013-05-23 11:23:00,64.0,55.0,29.98,North,355,3.0,9.0,73,0.00,,,0.00,,2013-05-23 16:23:00,
2013-05-23 11:33:00,63.0,55.0,29.98,NNW,336,4.0,11.0,74,0.00,,,0.00,,2013-05-23 16:33:00,
2013-05-23 11:42:00,63.0,55.0,29.98,NNW,336,4.0,11.0,74,0.00,,,0.00,,2013-05-23 16:42:00,
2013-05-23 11:52:00,62.0,55.0,29.98,WNW,293,1.0,7.0,77,0.00,,,0.00,,2013-05-23 16:52:00,
2013-05-23 12:03:00,63.0,54.0,29.99,NNW,329,3.0,9.0,73,0.00,,,0.00,,2013-05-23 17:03:00,
2013-05-23 12:11:00,63.0,54.0,29.99,NNW,329,3.0,9.0,73,0.00,,,0.00,,2013-05-23 17:11:00,
2013-05-23 12:23:00,63.0,55.0,29.99,NW,318,1.0,7.0,74,0.00,,,0.00,,2013-05-23 17:23:00,
2013-05-23 12:33:00,64.0,56.0,29.99,North,360,3.0,9.0,74,0.00,,,0.00,,2013-05-23 17:33:00,
2013-05-23 12:43:00,64.0,56.0,29.99,North,360,3.0,9.0,74,0.00,,,0.00,,2013-05-23 17:43:00,
2013-05-23 12:53:00,66.0,56.0,30.00,NNW,330,2.0,8.0,71,0.00,,,0.00,,2013-05-23 17:53:00,
2013-05-23 13:01:00,65.0,55.0,30.00,NNE,17,3.0,11.0,70,0.00,,,0.00,,2013-05-23 18:01:00,
2013-05-23 13:11:00,65.0,55.0,30.00,NNE,17,3.0,11.0,70,0.00,,,0.00,,2013-05-23 18:11:00,
2013-05-23 13:22:00,66.0,56.0,30.01,WNW,289,2.0,11.0,71,0.00,,,0.00,,2013-05-23 18:22:00,
2013-05-23 13:32:00,66.0,56.0,30.02,NNW,327,3.0,11.0,69,0.00,,,0.00,,2013-05-23 18:32:00,
2013-05-23 13:42:00,66.0,56.0,30.02,NNW,327,3.0,11.0,69,0.00,,,0.00,,2013-05-23 18:42:00,
2013-05-23 13:52:00,65.0,56.0,30.02,NW,304,3.0,11.0,73,0.00,,,0.00,,2013-05-23 18:52:00,
2013-05-23 14:01:00,65.0,55.0,30.02,NW,308,3.0,9.0,71,0.00,,,0.00,,2013-05-23 19:01:00,
2013-05-23 14:11:00,65.0,55.0,30.02,NW,308,3.0,9.0,71,0.00,,,0.00,,2013-05-23 19:11:00,
2013-05-23 14:21:00,65.0,56.0,30.02,NNW,345,3.0,9.0,73,0.00,,,0.00,,2013-05-23 19:21:00,
2013-05-23 14:32:00,64.0,54.0,30.03,NW,319,6.0,12.0,71,0.00,,,0.00,,2013-05-23 19:32:00,
2013-05-23 14:42:00,64.0,54.0,30.03,NW,319,6.0,12.0,71,0.00,,,0.00,,2013-05-23 19:42:00,
2013-05-23 14:52:00,64.0,55.0,30.03,NW,314,1.0,9.0,73,0.00,,,0.00,,2013-05-23 19:52:00,
2013-05-23 15:02:00,62.0,56.0,30.05,NNW,341,7.0,13.0,80,0.00,,,0.00,,2013-05-23 20:02:00,
2013-05-23 15:11:00,62.0,56.0,30.05,NNW,341,7.0,13.0,80,0.00,,,0.00,,2013-05-23 20:11:00,
2013-05-23 15:21:00,61.0,57.0,30.05,WSW,245,0.0,6.0,87,0.00,,,0.00,,2013-05-23 20:21:00,
2013-05-23 15:32:00,62.0,58.0,30.04,NNW,332,5.0,11.0,86,0.00,,,0.00,,2013-05-23 20:32:00,
2013-05-23 15:42:00,62.0,58.0,30.04,NNW,332,5.0,11.0,86,0.00,,,0.00,,2013-05-23 20:42:00,
2013-05-23 15:51:00,63.0,58.0,30.04,SE,124,4.0,12.0,84,0.00,,,0.00,,2013-05-23 20:51:00,
2013-05-23 16:01:00,63.0,57.0,30.04,WNW,285,6.0,12.0,82,0.00,,,0.00,,2013-05-23 21:01:00,
2013-05-23 16:11:00,63.0,57.0,30.04,WNW,285,6.0,12.0,82,0.00,,,0.00,,2013-05-23 21:11:00,
2013-05-23 16:21:00,64.0,58.0,30.04,NW,315,4.0,14.0,81,0.00,,,0.00,,2013-05-23 21:21:00,
2013-05-23 16:32:00,64.0,58.0,30.05,North,355,6.0,11.0,80,0.00,,,0.00,,2013-05-23 21:32:00,
2013-05-23 16:43:00,64.0,58.0,30.05,North,355,6.0,11.0,80,0.00,,,0.00,,2013-05-23 21:43:00,
2013-05-23 16:53:00,64.0,57.0,30.05,NW,318,4.0,10.0,79,0.00,,,0.00,,2013-05-23 21:53:00,
2013-05-23 17:03:00,64.0,57.0,30.05,WNW,298,7.0,11.0,79,0.00,,,0.00,,2013-05-23 22:03:00,
2013-05-23 17:12:00,64.0,57.0,30.05,WNW,298,7.0,11.0,79,0.00,,,0.00,,2013-05-23 22:12:00,
2013-05-23 17:22:00,64.0,58.0,30.05,WNW,301,4.0,10.0,81,0.00,,,0.00,,2013-05-23 22:22:00,
2013-05-23 17:33:00,64.0,58.0,30.06,NW,317,4.0,9.0,80,0.00,,,0.00,,2013-05-23 22:33:00,
2013-05-23 17:42:00,64.0,58.0,30.06,NW,317,4.0,9.0,80,0.00,,,0.00,,2013-05-23 22:42:00,
2013-05-23 17:52:00,64.0,58.0,30.06,NW,316,5.0,10.0,80,0.00,,,0.00,,2013-05-23 22:52:00,
2013-05-23 18:01:00,64.0,58.0,30.06,NNE,24,3.0,12.0,81,0.00,,,0.00,,2013-05-23 23:01:00,
2013-05-23 18:11:00,64.0,58.0,30.06,NNE,24,3.0,12.0,81,0.00,,,0.00,,2013-05-23 23:11:00,
2013-05-23 18:21:00,61.0,57.0,30.08,NW,321,5.0,13.0,87,0.04,,,0.04,,2013-05-23 23:21:00,
2013-05-23 18:32:00,59.0,57.0,30.09,North,11,5.0,12.0,92,0.05,,,0.05,,2013-05-23 23:32:00,
2013-05-23 18:42:00,59.0,57.0,30.09,North,11,5.0,12.0,92,0.05,,,0.05,,2013-05-23 23:42:00,
2013-05-23 18:52:00,58.0,56.0,30.09,North,355,1.0,8.0,93,0.06,,,0.06,,2013-05-23 23:52:00,
2013-05-23 19:01:00,58.0,56.0,30.10,NNW,348,7.0,12.0,92,0.06,,,0.06,,2013-05-24 00:01:00,
2013-05-23 19:12:00,58.0,56.0,30.10,NNW,348,7.0,12.0,92,0.06,,,0.06,,2013-05-24 00:12:00,
2013-05-23 19:21:00,57.0,54.0,30.10,NNW,346,6.0,11.0,90,0.02,,,0.06,,2013-05-24 00:21:00,
2013-05-23 19:32:00,57.0,54.0,30.11,North,351,4.0,9.0,89,0.01,,,0.06,,2013-05-24 00:32:00,
2013-05-23 19:42:00,57.0,54.0,30.11,North,351,4.0,9.0,89,0.01,,,0.06,,2013-05-24 00:42:00,
2013-05-23 19:52:00,57.0,54.0,30.12,NNW,333,3.0,9.0,89,0.00,,,0.06,,2013-05-24 00:52:00,
2013-05-23 20:01:00,56.0,53.0,30.13,NW,321,0.0,7.0,89,0.00,,,0.06,,2013-05-24 01:01:00,
2013-05-23 20:12:00,56.0,53.0,30.13,NW,321,0.0,7.0,89,0.00,,,0.06,,2013-05-24 01:12:00,
2013-05-23 20:22:00,56.0,52.0,30.13,North,355,6.0,11.0,87,0.00,,,0.06,,2013-05-24 01:22:00,
2013-05-23 20:32:00,56.0,52.0,30.14,WNW,282,6.0,11.0,85,0.00,,,0.06,,2013-05-24 01:32:00,
2013-05-23 20:41:00,56.0,52.0,30.14,WNW,282,6.0,11.0,85,0.00,,,0.06,,2013-05-24 01:41:00,
2013-05-23 20:52:00,56.0,51.0,30.15,NNW,347,4.0,10.0,84,0.00,,,0.06,,2013-05-24 01:52:00,
2013-05-23 21:01:00,55.0,50.0,30.15,NNE,14,7.0,13.0,84,0.00,,,0.06,,2013-05-24 02:01:00,
2013-05-23 21:11:00,55.0,50.0,30.15,NNE,14,7.0,13.0,84,0.00,,,0.06,,2013-05-24 02:11:00,
2013-05-23 21:21:00,55.0,49.0,30.16,NNW,340,5.0,12.0,81,0.00,,,0.06,,2013-05-24 02:21:00,
2013-05-23 21:32:00,54.0,49.0,30.16,North,360,5.0,12.0,82,0.00,,,0.06,,2013-05-24 02:32:00,
2013-05-23 21:42:00,54.0,49.0,30.16,North,360,5.0,12.0,82,0.00,,,0.06,,2013-05-24 02:42:00,
2013-05-23 21:52:00,54.0,49.0,30.17,NNW,344,0.0,8.0,83,0.00,,,0.06,,2013-05-24 02:52:00,
2013-05-23 22:02:00,54.0,48.0,30.18,NNW,331,0.0,13.0,80,0.00,,,0.06,,2013-05-24 03:02:00,
2013-05-23 22:11:00,54.0,48.0,30.18,NNW,331,0.0,13.0,80,0.00,,,0.06,,2013-05-24 03:11:00,
2013-05-23 22:21:00,54.0,48.0,30.19,North,5,7.0,16.0,80,0.00,,,0.06,,2013-05-24 03:21:00,
2013-05-23 22:33:00,54.0,48.0,30.20,NE,37,6.0,13.0,80,0.00,,,0.06,,2013-05-24 03:33:00,
2013-05-23 22:42:00,54.0,48.0,30.20,NE,37,6.0,13.0,80,0.00,,,0.06,,2013-05-24 03:42:00,
2013-05-23 22:53:00,53.0,47.0,30.21,NNW,338,5.0,13.0,80,0.00,,,0.06,,2013-05-24 03:53:00,
2013-05-23 23:03:00,52.0,46.0,30.21,NNE,25,9.0,14.0,80,0.00,,,0.06,,2013-05-24 04:03:00,
2013-05-23 23:12:00,52.0,46.0,30.21,NNE,25,9.0,14.0,80,0.00,,,0.06,,2013-05-24 04:12:00,
2013-05-23 23:22:00,52.0,46.0,30.21,North,360,9.0,18.0,80,0.00,,,0.06,,2013-05-24 04:22:00,
2013-05-23 23:33:00,51.0,45.0,30.22,North,355,2.0,14.0,81,0.00,,,0.06,,2013-05-24 04:33:00,
2013-05-23 23:42:00,51.0,45.0,30.22,North,355,2.0,14.0,81,0.00,,,0.06,,2013-05-24 04:42:00,
2013-05-23 23:53:00,51.0,46.0,30.22,North,355,5.0,13.0,82,0.00,,,0.06,,2013-05-24 04:53:00,